sensor_id;sensor_type;location;lat;lon;timestamp;pressure;altitude;pressure_sealevel;temperature;humidity
23118;BME280;11728;50.624;6.014;2023-05-01T00:02:46;98374.66;;;12.79;68.46
23118;BME280;11728;50.624;6.014;2023-05-01T00:08:07;98371.03;;;12.81;68.07
23118;BME280;11728;50.624;6.014;2023-05-01T00:13:28;98365.03;;;12.76;68.11
23118;BME280;11728;50.624;6.014;2023-05-01T00:18:49;98356.97;;;12.79;68.06
23118;BME280;11728;50.624;6.014;2023-05-01T00:24:10;98342.16;;;12.72;68.40
23118;BME280;11728;50.624;6.014;2023-05-01T00:29:31;98336.78;;;12.75;68.27
23118;BME280;11728;50.624;6.014;2023-05-01T00:34:52;98331.34;;;12.80;67.74
23118;BME280;11728;50.624;6.014;2023-05-01T00:40:12;98325.84;;;12.86;67.19
23118;BME280;11728;50.624;6.014;2023-05-01T00:45:33;98323.94;;;12.92;66.34
23118;BME280;11728;50.624;6.014;2023-05-01T00:50:55;98316.69;;;12.97;65.81
23118;BME280;11728;50.624;6.014;2023-05-01T00:56:16;98307.53;;;13.07;64.97
23118;BME280;11728;50.624;6.014;2023-05-01T01:01:37;98301.97;;;13.14;63.89
23118;BME280;11728;50.624;6.014;2023-05-01T01:07:13;98295.59;;;13.20;63.10
23118;BME280;11728;50.624;6.014;2023-05-01T01:18:34;98283.88;;;13.27;61.79
23118;BME280;11728;50.624;6.014;2023-05-01T01:30:23;98276.53;;;13.35;60.98
23118;BME280;11728;50.624;6.014;2023-05-01T01:35:56;98267.53;;;13.39;60.54
23118;BME280;11728;50.624;6.014;2023-05-01T01:41:29;98268.28;;;13.42;60.32
23118;BME280;11728;50.624;6.014;2023-05-01T01:46:52;98260.56;;;13.36;61.28
23118;BME280;11728;50.624;6.014;2023-05-01T01:52:14;98261.97;;;13.20;62.26
23118;BME280;11728;50.624;6.014;2023-05-01T01:57:37;98252.56;;;13.12;62.59
23118;BME280;11728;50.624;6.014;2023-05-01T02:02:59;98247.16;;;13.15;62.35
23118;BME280;11728;50.624;6.014;2023-05-01T02:08:22;98248.84;;;13.17;62.44
23118;BME280;11728;50.624;6.014;2023-05-01T02:13:44;98249.50;;;12.98;63.36
23118;BME280;11728;50.624;6.014;2023-05-01T02:19:05;98237.25;;;12.94;63.67
23118;BME280;11728;50.624;6.014;2023-05-01T02:24:27;98234.06;;;12.83;64.46
23118;BME280;11728;50.624;6.014;2023-05-01T02:29:51;98219.91;;;12.84;64.77
23118;BME280;11728;50.624;6.014;2023-05-01T02:35:12;98231.41;;;12.83;64.46
23118;BME280;11728;50.624;6.014;2023-05-01T02:40:35;98216.91;;;12.67;65.41
23118;BME280;11728;50.624;6.014;2023-05-01T02:45:58;98213.72;;;12.58;66.15
23118;BME280;11728;50.624;6.014;2023-05-01T02:51:22;98208.63;;;12.50;66.84
23118;BME280;11728;50.624;6.014;2023-05-01T02:56:43;98208.94;;;12.41;67.69
23118;BME280;11728;50.624;6.014;2023-05-01T03:02:04;98194.88;;;12.39;68.18
23118;BME280;11728;50.624;6.014;2023-05-01T03:07:25;98188.91;;;12.33;68.99
23118;BME280;11728;50.624;6.014;2023-05-01T03:12:46;98185.19;;;12.38;68.98
23118;BME280;11728;50.624;6.014;2023-05-01T03:18:07;98176.63;;;12.30;70.06
23118;BME280;11728;50.624;6.014;2023-05-01T03:23:28;98177.34;;;12.35;70.17
23118;BME280;11728;50.624;6.014;2023-05-01T03:28:49;98173.75;;;12.38;70.55
23118;BME280;11728;50.624;6.014;2023-05-01T03:34:10;98156.91;;;12.39;70.30
23118;BME280;11728;50.624;6.014;2023-05-01T03:39:30;98160.34;;;12.42;70.20
23118;BME280;11728;50.624;6.014;2023-05-01T03:44:51;98154.03;;;12.46;69.31
23118;BME280;11728;50.624;6.014;2023-05-01T03:50:12;98153.97;;;12.49;68.81
23118;BME280;11728;50.624;6.014;2023-05-01T03:55:34;98148.44;;;12.55;67.86
23118;BME280;11728;50.624;6.014;2023-05-01T04:00:54;98154.41;;;12.62;67.08
23118;BME280;11728;50.624;6.014;2023-05-01T04:06:19;98154.03;;;12.72;65.83
23118;BME280;11728;50.624;6.014;2023-05-01T04:11:42;98150.09;;;12.84;64.81
23118;BME280;11728;50.624;6.014;2023-05-01T04:17:02;98145.56;;;12.87;64.62
23118;BME280;11728;50.624;6.014;2023-05-01T04:22:23;98146.09;;;12.72;66.60
23118;BME280;11728;50.624;6.014;2023-05-01T04:27:44;98145.38;;;12.67;67.50
23118;BME280;11728;50.624;6.014;2023-05-01T04:33:05;98142.53;;;12.73;67.18
23118;BME280;11728;50.624;6.014;2023-05-01T04:38:30;98144.94;;;12.81;67.02
23118;BME280;11728;50.624;6.014;2023-05-01T04:43:51;98149.47;;;12.77;67.53
23118;BME280;11728;50.624;6.014;2023-05-01T04:49:12;98147.69;;;12.78;68.09
23118;BME280;11728;50.624;6.014;2023-05-01T04:54:33;98151.00;;;12.84;67.82
23118;BME280;11728;50.624;6.014;2023-05-01T04:59:54;98147.34;;;12.88;67.86
23118;BME280;11728;50.624;6.014;2023-05-01T05:05:15;98149.97;;;12.90;67.98
23118;BME280;11728;50.624;6.014;2023-05-01T05:10:36;98147.63;;;12.79;69.05
23118;BME280;11728;50.624;6.014;2023-05-01T05:15:56;98151.09;;;12.81;69.56
23118;BME280;11728;50.624;6.014;2023-05-01T05:21:17;98147.53;;;12.82;69.67
23118;BME280;11728;50.624;6.014;2023-05-01T05:26:38;98149.97;;;12.90;69.96
23118;BME280;11728;50.624;6.014;2023-05-01T05:31:59;98154.06;;;12.98;69.52
23118;BME280;11728;50.624;6.014;2023-05-01T05:37:20;98159.97;;;13.06;69.31
23118;BME280;11728;50.624;6.014;2023-05-01T05:42:40;98153.63;;;13.10;70.05
23118;BME280;11728;50.624;6.014;2023-05-01T05:48:01;98147.31;;;13.14;70.34
23118;BME280;11728;50.624;6.014;2023-05-01T05:53:22;98150.97;;;13.11;70.39
23118;BME280;11728;50.624;6.014;2023-05-01T05:58:43;98150.97;;;13.10;70.16
23118;BME280;11728;50.624;6.014;2023-05-01T06:04:04;98145.75;;;13.08;69.73
23118;BME280;11728;50.624;6.014;2023-05-01T06:09:25;98142.84;;;13.16;69.78
23118;BME280;11728;50.624;6.014;2023-05-01T06:14:46;98141.47;;;13.29;70.32
23118;BME280;11728;50.624;6.014;2023-05-01T06:20:08;98139.88;;;13.48;69.56
23118;BME280;11728;50.624;6.014;2023-05-01T06:25:29;98141.13;;;13.62;69.51
23118;BME280;11728;50.624;6.014;2023-05-01T06:30:50;98143.63;;;13.65;69.53
23118;BME280;11728;50.624;6.014;2023-05-01T06:36:11;98141.72;;;13.69;69.72
23118;BME280;11728;50.624;6.014;2023-05-01T06:41:32;98141.41;;;13.78;68.65
23118;BME280;11728;50.624;6.014;2023-05-01T06:46:53;98132.75;;;13.95;67.55
23118;BME280;11728;50.624;6.014;2023-05-01T06:52:16;98144.63;;;14.08;66.46
23118;BME280;11728;50.624;6.014;2023-05-01T06:57:36;98144.41;;;14.14;65.98
23118;BME280;11728;50.624;6.014;2023-05-01T07:02:59;98137.66;;;14.29;65.71
23118;BME280;11728;50.624;6.014;2023-05-01T07:08:20;98149.44;;;14.43;66.11
23118;BME280;11728;50.624;6.014;2023-05-01T07:13:41;98136.69;;;14.51;66.55
23118;BME280;11728;50.624;6.014;2023-05-01T07:19:01;98136.69;;;14.51;66.51
23118;BME280;11728;50.624;6.014;2023-05-01T07:24:22;98137.00;;;14.65;65.58
23118;BME280;11728;50.624;6.014;2023-05-01T07:29:43;98131.59;;;15.08;64.21
23118;BME280;11728;50.624;6.014;2023-05-01T07:35:04;98130.44;;;15.54;62.41
23118;BME280;11728;50.624;6.014;2023-05-01T07:40:25;98133.06;;;15.93;62.10
23118;BME280;11728;50.624;6.014;2023-05-01T07:45:56;98133.03;;;16.31;61.59
23118;BME280;11728;50.624;6.014;2023-05-01T07:51:17;98132.84;;;16.52;60.46
23118;BME280;11728;50.624;6.014;2023-05-01T07:56:38;98134.00;;;16.82;59.41
23118;BME280;11728;50.624;6.014;2023-05-01T08:01:59;98134.44;;;17.08;58.33
23118;BME280;11728;50.624;6.014;2023-05-01T08:07:20;98132.88;;;17.38;56.77
23118;BME280;11728;50.624;6.014;2023-05-01T08:12:41;98124.19;;;17.84;55.70
23118;BME280;11728;50.624;6.014;2023-05-01T08:18:01;98124.59;;;18.40;54.08
23118;BME280;11728;50.624;6.014;2023-05-01T08:23:22;98120.19;;;18.69;53.37
23118;BME280;11728;50.624;6.014;2023-05-01T08:28:44;98124.66;;;19.00;52.42
23118;BME280;11728;50.624;6.014;2023-05-01T08:34:05;98124.22;;;19.36;50.88
23118;BME280;11728;50.624;6.014;2023-05-01T08:39:26;98120.72;;;19.50;50.13
23118;BME280;11728;50.624;6.014;2023-05-01T08:44:47;98126.09;;;19.64;50.09
23118;BME280;11728;50.624;6.014;2023-05-01T08:50:12;98127.56;;;19.40;50.72
23118;BME280;11728;50.624;6.014;2023-05-01T08:55:34;98124.38;;;19.33;50.28
23118;BME280;11728;50.624;6.014;2023-05-01T09:00:55;98137.38;;;19.26;49.43
23118;BME280;11728;50.624;6.014;2023-05-01T09:06:19;98145.19;;;18.99;50.10
23118;BME280;11728;50.624;6.014;2023-05-01T09:11:43;98145.19;;;18.99;50.41
23118;BME280;11728;50.624;6.014;2023-05-01T09:17:04;98143.06;;;19.35;50.31
23118;BME280;11728;50.624;6.014;2023-05-01T09:22:25;98140.22;;;19.95;49.72
23118;BME280;11728;50.624;6.014;2023-05-01T09:27:46;98144.72;;;20.22;48.78
23118;BME280;11728;50.624;6.014;2023-05-01T09:33:12;98143.09;;;20.20;48.31
23118;BME280;11728;50.624;6.014;2023-05-01T09:38:33;98144.84;;;20.47;48.07
23118;BME280;11728;50.624;6.014;2023-05-01T09:43:55;98140.75;;;20.96;47.29
23118;BME280;11728;50.624;6.014;2023-05-01T09:49:16;98144.19;;;21.37;46.45
23118;BME280;11728;50.624;6.014;2023-05-01T09:54:37;98147.59;;;21.26;46.15
23118;BME280;11728;50.624;6.014;2023-05-01T10:00:02;98148.31;;;21.16;45.67
23118;BME280;11728;50.624;6.014;2023-05-01T10:05:41;98136.00;;;21.89;44.68
23118;BME280;11728;50.624;6.014;2023-05-01T10:11:02;98139.88;;;22.83;43.53
23118;BME280;11728;50.624;6.014;2023-05-01T10:16:29;98130.63;;;23.45;42.24
23118;BME280;11728;50.624;6.014;2023-05-01T10:21:50;98127.59;;;23.49;42.16
23118;BME280;11728;50.624;6.014;2023-05-01T10:27:11;98127.25;;;23.54;42.09
23118;BME280;11728;50.624;6.014;2023-05-01T10:32:35;98121.41;;;24.60;41.43
23118;BME280;11728;50.624;6.014;2023-05-01T10:38:25;98123.81;;;24.84;40.57
23118;BME280;11728;50.624;6.014;2023-05-01T10:44:19;98122.00;;;24.63;40.30
23118;BME280;11728;50.624;6.014;2023-05-01T10:55:37;98118.50;;;25.47;38.42
23118;BME280;11728;50.624;6.014;2023-05-01T11:18:06;98102.69;;;27.88;34.17
23118;BME280;11728;50.624;6.014;2023-05-01T11:23:27;98106.19;;;28.62;33.54
23118;BME280;11728;50.624;6.014;2023-05-01T11:28:53;98108.06;;;28.06;34.49
23118;BME280;11728;50.624;6.014;2023-05-01T11:34:14;98123.03;;;26.97;35.87
23118;BME280;11728;50.624;6.014;2023-05-01T11:39:35;98125.09;;;25.54;36.60
23118;BME280;11728;50.624;6.014;2023-05-01T11:45:09;98123.84;;;24.52;37.87
23118;BME280;11728;50.624;6.014;2023-05-01T11:50:35;98125.06;;;24.70;37.91
23118;BME280;11728;50.624;6.014;2023-05-01T11:55:56;98123.53;;;23.78;39.25
23118;BME280;11728;50.624;6.014;2023-05-01T12:01:18;98123.91;;;23.39;39.42
23118;BME280;11728;50.624;6.014;2023-05-01T12:06:40;98120.50;;;23.94;39.32
23118;BME280;11728;50.624;6.014;2023-05-01T12:12:04;98121.06;;;24.53;39.03
23118;BME280;11728;50.624;6.014;2023-05-01T12:17:25;98118.00;;;26.83;37.14
23118;BME280;11728;50.624;6.014;2023-05-01T12:22:48;98120.69;;;27.60;36.21
23118;BME280;11728;50.624;6.014;2023-05-01T12:28:14;98132.72;;;26.01;37.20
23118;BME280;11728;50.624;6.014;2023-05-01T12:33:35;98128.97;;;25.41;38.27
23118;BME280;11728;50.624;6.014;2023-05-01T12:38:56;98125.16;;;26.45;37.10
23118;BME280;11728;50.624;6.014;2023-05-01T12:44:28;98121.53;;;27.23;35.86
23118;BME280;11728;50.624;6.014;2023-05-01T12:50:00;98117.84;;;27.33;36.25
23118;BME280;11728;50.624;6.014;2023-05-01T12:55:22;98116.47;;;26.51;36.58
23118;BME280;11728;50.624;6.014;2023-05-01T13:00:47;98119.13;;;25.40;37.46
23118;BME280;11728;50.624;6.014;2023-05-01T13:06:08;98109.22;;;24.00;39.31
23118;BME280;11728;50.624;6.014;2023-05-01T13:11:29;98102.66;;;23.69;40.38
23118;BME280;11728;50.624;6.014;2023-05-01T13:16:50;98108.53;;;23.29;40.95
23118;BME280;11728;50.624;6.014;2023-05-01T13:22:11;98112.25;;;22.92;41.22
23118;BME280;11728;50.624;6.014;2023-05-01T13:27:32;98114.47;;;23.11;41.23
23118;BME280;11728;50.624;6.014;2023-05-01T13:32:54;98122.78;;;23.08;42.16
23118;BME280;11728;50.624;6.014;2023-05-01T13:38:15;98117.47;;;23.29;41.79
23118;BME280;11728;50.624;6.014;2023-05-01T13:43:35;98112.00;;;23.42;41.72
23118;BME280;11728;50.624;6.014;2023-05-01T13:49:02;98109.81;;;23.81;40.88
23118;BME280;11728;50.624;6.014;2023-05-01T13:54:24;98116.16;;;23.12;41.44
23118;BME280;11728;50.624;6.014;2023-05-01T13:59:45;98123.41;;;21.90;42.48
23118;BME280;11728;50.624;6.014;2023-05-01T14:05:07;98123.91;;;21.06;43.23
23118;BME280;11728;50.624;6.014;2023-05-01T14:10:30;98137.59;;;20.35;44.17
23118;BME280;11728;50.624;6.014;2023-05-01T14:15:51;98165.78;;;20.28;45.08
23118;BME280;11728;50.624;6.014;2023-05-01T14:21:16;98182.38;;;19.34;47.52
23118;BME280;11728;50.624;6.014;2023-05-01T14:26:42;98192.13;;;17.95;52.22
23118;BME280;11728;50.624;6.014;2023-05-01T14:32:03;98199.63;;;17.21;55.15
23118;BME280;11728;50.624;6.014;2023-05-01T14:37:23;98198.88;;;17.01;56.60
23118;BME280;11728;50.624;6.014;2023-05-01T14:42:44;98206.75;;;16.86;57.58
23118;BME280;11728;50.624;6.014;2023-05-01T14:48:06;98207.97;;;16.62;58.26
23118;BME280;11728;50.624;6.014;2023-05-01T14:53:30;98208.81;;;16.44;59.44
23118;BME280;11728;50.624;6.014;2023-05-01T14:58:51;98214.47;;;16.00;61.57
23118;BME280;11728;50.624;6.014;2023-05-01T15:04:12;98210.63;;;16.05;61.94
23118;BME280;11728;50.624;6.014;2023-05-01T15:09:33;98210.72;;;16.22;61.89
23118;BME280;11728;50.624;6.014;2023-05-01T15:14:54;98197.13;;;16.65;60.59
23118;BME280;11728;50.624;6.014;2023-05-01T15:20:15;98202.00;;;17.27;59.07
23118;BME280;11728;50.624;6.014;2023-05-01T15:25:35;98203.97;;;18.07;57.11
23118;BME280;11728;50.624;6.014;2023-05-01T15:30:56;98202.00;;;18.89;54.35
23118;BME280;11728;50.624;6.014;2023-05-01T15:36:17;98212.50;;;19.38;51.33
23118;BME280;11728;50.624;6.014;2023-05-01T15:41:38;98228.50;;;19.69;50.63
23118;BME280;11728;50.624;6.014;2023-05-01T15:46:59;98232.78;;;19.13;50.48
23118;BME280;11728;50.624;6.014;2023-05-01T15:52:19;98246.19;;;18.50;52.41
23118;BME280;11728;50.624;6.014;2023-05-01T15:57:44;98248.94;;;17.99;55.40
23118;BME280;11728;50.624;6.014;2023-05-01T16:03:06;98245.66;;;17.60;57.08
23118;BME280;11728;50.624;6.014;2023-05-01T16:08:27;98247.88;;;17.52;57.73
23118;BME280;11728;50.624;6.014;2023-05-01T16:13:48;98243.28;;;17.37;58.00
23118;BME280;11728;50.624;6.014;2023-05-01T16:19:14;98250.06;;;17.44;59.10
23118;BME280;11728;50.624;6.014;2023-05-01T16:24:37;98255.94;;;17.15;57.69
23118;BME280;11728;50.624;6.014;2023-05-01T16:29:58;98261.22;;;16.63;58.42
23118;BME280;11728;50.624;6.014;2023-05-01T16:35:23;98276.69;;;16.55;59.24
23118;BME280;11728;50.624;6.014;2023-05-01T16:40:46;98291.97;;;16.52;60.79
23118;BME280;11728;50.624;6.014;2023-05-01T16:46:11;98294.53;;;16.15;62.92
23118;BME280;11728;50.624;6.014;2023-05-01T16:51:32;98294.19;;;16.22;63.38
23118;BME280;11728;50.624;6.014;2023-05-01T16:56:53;98291.44;;;16.06;66.10
23118;BME280;11728;50.624;6.014;2023-05-01T17:02:14;98297.34;;;15.92;67.53
23118;BME280;11728;50.624;6.014;2023-05-01T17:07:35;98296.66;;;15.67;68.83
23118;BME280;11728;50.624;6.014;2023-05-01T17:12:56;98286.72;;;15.72;69.33
23118;BME280;11728;50.624;6.014;2023-05-01T17:18:17;98290.88;;;15.58;69.57
23118;BME280;11728;50.624;6.014;2023-05-01T17:23:38;98296.75;;;15.25;70.42
23118;BME280;11728;50.624;6.014;2023-05-01T17:28:59;98299.41;;;15.25;70.85
23118;BME280;11728;50.624;6.014;2023-05-01T17:34:20;98297.03;;;14.96;71.00
23118;BME280;11728;50.624;6.014;2023-05-01T17:39:41;98303.94;;;14.78;71.61
23118;BME280;11728;50.624;6.014;2023-05-01T17:45:02;98316.31;;;14.79;71.60
23118;BME280;11728;50.624;6.014;2023-05-01T17:50:26;98320.13;;;14.94;71.15
23118;BME280;11728;50.624;6.014;2023-05-01T17:55:47;98321.63;;;15.01;70.15
23118;BME280;11728;50.624;6.014;2023-05-01T18:01:08;98318.84;;;15.04;69.68
23118;BME280;11728;50.624;6.014;2023-05-01T18:06:29;98327.44;;;14.89;70.17
23118;BME280;11728;50.624;6.014;2023-05-01T18:11:51;98332.09;;;14.84;70.24
23118;BME280;11728;50.624;6.014;2023-05-01T18:17:12;98320.69;;;14.80;70.76
23118;BME280;11728;50.624;6.014;2023-05-01T18:22:32;98331.03;;;14.65;71.82
23118;BME280;11728;50.624;6.014;2023-05-01T18:27:54;98331.69;;;14.49;73.23
23118;BME280;11728;50.624;6.014;2023-05-01T18:33:15;98341.28;;;14.30;74.45
23118;BME280;11728;50.624;6.014;2023-05-01T18:38:37;98345.19;;;14.20;75.75
23118;BME280;11728;50.624;6.014;2023-05-01T18:43:58;98359.22;;;14.23;76.45
23118;BME280;11728;50.624;6.014;2023-05-01T18:49:20;98347.75;;;14.21;76.58
23118;BME280;11728;50.624;6.014;2023-05-01T18:54:44;98357.63;;;14.18;76.80
23118;BME280;11728;50.624;6.014;2023-05-01T19:00:06;98352.38;;;13.90;78.64
23118;BME280;11728;50.624;6.014;2023-05-01T19:05:27;98355.41;;;13.80;79.65
23118;BME280;11728;50.624;6.014;2023-05-01T19:10:48;98372.31;;;13.78;80.17
23118;BME280;11728;50.624;6.014;2023-05-01T19:16:09;98376.88;;;13.98;79.47
23118;BME280;11728;50.624;6.014;2023-05-01T19:21:30;98378.94;;;14.16;78.80
23118;BME280;11728;50.624;6.014;2023-05-01T19:26:51;98387.56;;;14.23;78.56
23118;BME280;11728;50.624;6.014;2023-05-01T19:32:12;98399.88;;;13.99;79.58
23118;BME280;11728;50.624;6.014;2023-05-01T19:37:33;98405.22;;;13.74;80.72
23118;BME280;11728;50.624;6.014;2023-05-01T19:42:54;98406.19;;;13.71;80.42
23118;BME280;11728;50.624;6.014;2023-05-01T19:48:14;98413.88;;;13.79;79.53
23118;BME280;11728;50.624;6.014;2023-05-01T19:53:35;98427.84;;;13.58;79.88
23118;BME280;11728;50.624;6.014;2023-05-01T19:58:56;98437.97;;;13.45;80.42
23118;BME280;11728;50.624;6.014;2023-05-01T20:04:17;98444.63;;;13.31;80.60
23118;BME280;11728;50.624;6.014;2023-05-01T20:09:38;98453.09;;;13.16;81.10
23118;BME280;11728;50.624;6.014;2023-05-01T20:14:59;98449.16;;;12.99;81.97
23118;BME280;11728;50.624;6.014;2023-05-01T20:20:20;98454.88;;;12.85;82.52
23118;BME280;11728;50.624;6.014;2023-05-01T20:25:42;98457.72;;;12.78;82.49
23118;BME280;11728;50.624;6.014;2023-05-01T20:31:03;98471.72;;;12.83;82.41
23118;BME280;11728;50.624;6.014;2023-05-01T20:36:24;98476.56;;;12.99;81.77
23118;BME280;11728;50.624;6.014;2023-05-01T20:41:44;98479.53;;;12.87;82.34
23118;BME280;11728;50.624;6.014;2023-05-01T20:47:05;98468.19;;;12.82;83.18
23118;BME280;11728;50.624;6.014;2023-05-01T20:52:26;98477.78;;;12.88;83.13
23118;BME280;11728;50.624;6.014;2023-05-01T20:57:47;98482.19;;;12.89;83.28
23118;BME280;11728;50.624;6.014;2023-05-01T21:03:08;98500.56;;;12.95;83.28
23118;BME280;11728;50.624;6.014;2023-05-01T21:08:29;98500.78;;;12.86;83.75
23118;BME280;11728;50.624;6.014;2023-05-01T21:13:50;98506.19;;;12.83;83.85
23118;BME280;11728;50.624;6.014;2023-05-01T21:19:11;98511.69;;;12.75;84.12
23118;BME280;11728;50.624;6.014;2023-05-01T21:24:32;98513.91;;;12.58;84.10
23118;BME280;11728;50.624;6.014;2023-05-01T21:29:56;98522.66;;;12.28;84.92
23118;BME280;11728;50.624;6.014;2023-05-01T21:35:18;98524.16;;;12.05;85.86
23118;BME280;11728;50.624;6.014;2023-05-01T21:40:40;98526.25;;;11.93;86.69
23118;BME280;11728;50.624;6.014;2023-05-01T21:46:01;98536.81;;;11.94;86.47
23118;BME280;11728;50.624;6.014;2023-05-01T21:51:26;98537.66;;;11.95;85.65
23118;BME280;11728;50.624;6.014;2023-05-01T21:56:47;98559.94;;;11.85;86.11
23118;BME280;11728;50.624;6.014;2023-05-01T22:02:10;98561.47;;;11.95;86.54
23118;BME280;11728;50.624;6.014;2023-05-01T22:07:31;98563.03;;;12.03;86.61
23118;BME280;11728;50.624;6.014;2023-05-01T22:12:52;98567.41;;;12.04;86.60
23118;BME280;11728;50.624;6.014;2023-05-01T22:18:13;98566.19;;;11.82;87.30
23118;BME280;11728;50.624;6.014;2023-05-01T22:23:38;98562.19;;;11.65;88.19
23118;BME280;11728;50.624;6.014;2023-05-01T22:28:59;98569.47;;;11.54;88.30
23118;BME280;11728;50.624;6.014;2023-05-01T22:34:20;98573.28;;;11.41;88.43
23118;BME280;11728;50.624;6.014;2023-05-01T22:39:40;98577.72;;;11.39;88.19
23118;BME280;11728;50.624;6.014;2023-05-01T22:45:02;98591.78;;;11.43;87.78
23118;BME280;11728;50.624;6.014;2023-05-01T22:50:22;98604.56;;;11.62;87.09
23118;BME280;11728;50.624;6.014;2023-05-01T22:55:43;98602.38;;;11.82;86.56
23118;BME280;11728;50.624;6.014;2023-05-01T23:01:04;98610.72;;;12.02;85.81
23118;BME280;11728;50.624;6.014;2023-05-01T23:06:25;98612.47;;;12.03;85.82
23118;BME280;11728;50.624;6.014;2023-05-01T23:11:46;98612.78;;;11.89;86.48
23118;BME280;11728;50.624;6.014;2023-05-01T23:17:07;98612.00;;;11.84;86.99
23118;BME280;11728;50.624;6.014;2023-05-01T23:22:28;98614.63;;;11.86;87.57
23118;BME280;11728;50.624;6.014;2023-05-01T23:27:50;98610.09;;;11.91;87.79
23118;BME280;11728;50.624;6.014;2023-05-01T23:33:12;98611.13;;;11.84;86.80
23118;BME280;11728;50.624;6.014;2023-05-01T23:38:36;98604.66;;;11.59;87.32
23118;BME280;11728;50.624;6.014;2023-05-01T23:43:56;98610.28;;;11.41;87.69
23118;BME280;11728;50.624;6.014;2023-05-01T23:49:18;98614.16;;;11.25;88.44
23118;BME280;11728;50.624;6.014;2023-05-01T23:54:38;98617.59;;;11.30;88.23
23118;BME280;11728;50.624;6.014;2023-05-01T23:59:59;98613.13;;;11.32;87.81
